createdAt,value
2019-05-15T00:00:08.994Z,52.72
2019-05-15T00:02:38.878Z,51.77
2019-05-15T00:05:09.263Z,52.61
2019-05-15T00:07:39.102Z,52.57
2019-05-15T00:10:08.946Z,54.03
2019-05-15T00:12:39.669Z,54.35
2019-05-15T00:15:09.285Z,53.64
2019-05-15T00:17:39.490Z,52.04
2019-05-15T00:20:09.981Z,53.77
2019-05-15T00:22:39.120Z,53.11
2019-05-15T00:25:09.370Z,53.59
2019-05-15T00:27:38.819Z,53.06
2019-05-15T00:30:12.361Z,53.28
2019-05-15T00:32:40.757Z,54.38
2019-05-15T00:35:09.693Z,54.11
2019-05-15T00:37:39.577Z,53.44
2019-05-15T00:40:09.069Z,54.73
2019-05-15T00:42:38.505Z,54.58
2019-05-15T00:45:10.693Z,53.32
2019-05-15T00:47:39.859Z,53.59
2019-05-15T00:50:10.082Z,53.19
2019-05-15T00:52:40.014Z,54.13
2019-05-15T00:55:11.139Z,55.42
2019-05-15T00:57:41.038Z,55.85
2019-05-15T01:00:11.927Z,56.55
2019-05-15T01:02:42.031Z,55.06
2019-05-15T01:05:10.444Z,56.00
2019-05-15T01:07:40.345Z,54.56
2019-05-15T01:10:10.415Z,56.20
2019-05-15T01:12:38.838Z,55.90
2019-05-15T01:15:09.584Z,54.72
2019-05-15T01:17:39.137Z,54.53
2019-05-15T01:20:08.496Z,55.32
2019-05-15T01:22:39.326Z,55.31
2019-05-15T01:25:08.636Z,56.47
2019-05-15T01:27:38.567Z,57.21
2019-05-15T01:30:09.404Z,57.34
2019-05-15T01:32:39.867Z,57.22
2019-05-15T01:35:09.975Z,57.42
2019-05-15T01:37:39.183Z,57.51
2019-05-15T01:40:09.673Z,58.07
2019-05-15T01:42:39.031Z,58.18
2019-05-15T01:45:08.931Z,57.99
2019-05-15T01:47:39.235Z,59.69
2019-05-15T01:50:09.305Z,59.37
2019-05-15T01:52:39.621Z,59.59
2019-05-15T01:55:10.706Z,60.18
2019-05-15T01:57:39.070Z,61.67
2019-05-15T02:00:10.436Z,61.67
2019-05-15T02:02:39.335Z,63.04
2019-05-15T02:05:09.318Z,63.38
2019-05-15T02:07:39.049Z,62.36
2019-05-15T02:10:09.455Z,63.55
2019-05-15T02:12:38.894Z,63.14
2019-05-15T02:15:08.990Z,63.26
2019-05-15T02:17:39.303Z,63.37
2019-05-15T02:20:08.476Z,63.38
2019-05-15T02:22:42.029Z,63.85
2019-05-15T02:25:08.771Z,63.54
2019-05-15T02:27:39.355Z,63.87
2019-05-15T02:30:22.254Z,64.16
2019-05-15T02:32:39.614Z,65.12
2019-05-15T02:35:09.879Z,64.82
2019-05-15T02:37:40.847Z,63.94
2019-05-15T02:40:11.755Z,65.35
2019-05-15T02:42:40.764Z,64.65
2019-05-15T02:45:10.267Z,65.89
2019-05-15T02:47:40.051Z,65.87
2019-05-15T02:50:11.461Z,65.53
2019-05-15T02:52:45.129Z,65.46
2019-05-15T02:55:12.020Z,65.77
2019-05-15T02:57:40.413Z,65.03
2019-05-15T03:00:10.727Z,65.74
2019-05-15T03:02:41.185Z,66.02
2019-05-15T03:05:09.758Z,65.26
2019-05-15T03:07:40.462Z,65.36
2019-05-15T03:10:09.391Z,65.29
2019-05-15T03:12:40.851Z,65.68
2019-05-15T03:15:10.181Z,64.39
2019-05-15T03:17:40.436Z,64.28
2019-05-15T03:20:10.845Z,64.74
2019-05-15T03:22:40.741Z,65.40
2019-05-15T03:25:10.829Z,65.63
2019-05-15T03:27:40.195Z,67.16
2019-05-15T03:30:13.703Z,65.66
2019-05-15T03:32:52.528Z,65.81
2019-05-15T03:35:14.172Z,65.72
2019-05-15T03:37:40.855Z,65.42
2019-05-15T03:40:10.214Z,65.30
2019-05-15T03:42:39.740Z,66.77
2019-05-15T03:45:13.060Z,67.36
2019-05-15T03:47:41.423Z,67.88
2019-05-15T03:50:11.337Z,67.81
2019-05-15T03:52:41.479Z,67.97
2019-05-15T03:55:11.938Z,68.77
2019-05-15T03:57:40.626Z,67.78
2019-05-15T04:00:10.450Z,68.33
2019-05-15T04:02:39.756Z,67.01
2019-05-15T04:05:11.767Z,67.68
2019-05-15T04:07:39.747Z,66.83
2019-05-15T04:10:10.130Z,67.00
2019-05-15T04:12:40.720Z,66.39
2019-05-15T04:15:10.481Z,67.84
2019-05-15T04:17:40.513Z,67.43
2019-05-15T04:20:10.844Z,67.07
2019-05-15T04:22:40.241Z,67.20
2019-05-15T04:25:10.560Z,67.20
2019-05-15T04:27:41.104Z,67.04
2019-05-15T04:30:11.084Z,67.08
2019-05-15T04:32:40.609Z,66.68
2019-05-15T04:35:10.238Z,67.33
2019-05-15T04:37:40.527Z,67.15
2019-05-15T04:40:10.245Z,66.59
2019-05-15T04:42:39.715Z,66.72
2019-05-15T04:45:10.277Z,66.21
2019-05-15T04:47:39.730Z,65.80
2019-05-15T04:50:10.006Z,65.05
2019-05-15T04:52:43.398Z,64.90
2019-05-15T04:55:10.804Z,64.45
2019-05-15T04:57:41.146Z,63.69
2019-05-15T05:00:10.584Z,63.03
2019-05-15T05:02:40.370Z,63.57
2019-05-15T05:05:10.455Z,62.56
2019-05-15T05:07:39.835Z,62.85
2019-05-15T05:10:09.830Z,62.39
2019-05-15T05:12:42.651Z,61.13
2019-05-15T05:15:10.946Z,60.64
2019-05-15T05:17:39.545Z,60.33
2019-05-15T05:20:11.148Z,60.04
2019-05-15T05:22:39.754Z,60.34
2019-05-15T05:25:08.478Z,60.33
2019-05-15T05:27:38.431Z,59.93
2019-05-15T05:30:08.884Z,58.77
2019-05-15T05:32:38.941Z,58.20
2019-05-15T05:35:08.546Z,58.20
2019-05-15T05:37:39.309Z,57.78
2019-05-15T05:40:09.187Z,57.62
2019-05-15T05:42:38.884Z,57.55
2019-05-15T05:45:09.248Z,57.07
2019-05-15T05:47:39.515Z,56.88
2019-05-15T05:50:08.855Z,56.87
2019-05-15T05:52:39.122Z,56.20
2019-05-15T05:55:09.008Z,56.13
2019-05-15T05:57:39.654Z,56.39
2019-05-15T06:00:09.563Z,56.37
2019-05-15T06:02:46.744Z,55.81
2019-05-15T06:05:08.479Z,56.00
2019-05-15T06:07:38.782Z,55.56
2019-05-15T06:10:08.884Z,55.30
2019-05-15T06:12:38.860Z,54.54
2019-05-15T06:15:08.845Z,54.40
2019-05-15T06:17:39.172Z,54.27
2019-05-15T06:20:08.287Z,54.66
2019-05-15T06:22:38.784Z,53.44
2019-05-15T06:25:11.213Z,52.27
2019-05-15T06:27:39.107Z,51.21
2019-05-15T06:30:08.813Z,51.45
2019-05-15T06:32:39.806Z,50.22
2019-05-15T06:35:09.461Z,48.89
2019-05-15T06:37:39.566Z,47.52
2019-05-15T06:40:08.577Z,46.96
2019-05-15T06:42:39.457Z,47.53
2019-05-15T06:45:08.507Z,46.54
2019-05-15T06:47:39.199Z,45.75
2019-05-15T06:50:11.356Z,45.64
2019-05-15T06:52:41.283Z,44.68
2019-05-15T06:55:11.232Z,40.07
2019-05-15T06:57:39.985Z,40.05
2019-05-15T07:00:11.566Z,39.90
2019-05-15T07:02:40.021Z,38.93
2019-05-15T07:05:08.468Z,38.63
2019-05-15T07:07:38.675Z,37.86
2019-05-15T07:10:08.960Z,35.11
2019-05-15T07:12:39.126Z,35.92
2019-05-15T07:15:09.128Z,34.20
2019-05-15T07:17:39.182Z,35.10
2019-05-15T07:20:09.597Z,34.71
2019-05-15T07:22:39.527Z,35.68
2019-05-15T07:25:10.798Z,33.83
2019-05-15T07:27:39.386Z,34.08
2019-05-15T07:30:11.910Z,34.19
2019-05-15T07:32:40.022Z,33.74
2019-05-15T07:35:09.511Z,33.99
2019-05-15T07:37:38.695Z,31.53
2019-05-15T07:40:10.417Z,30.82
2019-05-15T07:42:39.053Z,31.54
2019-05-15T07:45:08.928Z,31.57
2019-05-15T07:47:40.408Z,30.70
2019-05-15T07:50:10.834Z,30.23
2019-05-15T07:52:41.009Z,31.26
2019-05-15T07:55:12.037Z,29.98
2019-05-15T07:57:40.498Z,30.73
2019-05-15T08:00:11.752Z,30.53
2019-05-15T08:02:40.221Z,31.27
2019-05-15T08:05:11.399Z,31.08
2019-05-15T08:07:40.018Z,31.05
2019-05-15T08:10:10.593Z,29.77
2019-05-15T08:12:39.409Z,30.61
2019-05-15T08:15:10.583Z,28.66
2019-05-15T08:17:59.000Z,29.75
2019-05-15T08:20:11.974Z,30.34
2019-05-15T08:22:40.626Z,30.31
2019-05-15T08:25:26.424Z,28.14
2019-05-15T08:27:41.725Z,29.91
2019-05-15T08:30:13.148Z,29.09
2019-05-15T08:32:41.551Z,28.21
2019-05-15T08:35:12.636Z,30.42
2019-05-15T08:37:40.999Z,28.65
2019-05-15T08:40:10.111Z,29.99
2019-05-15T08:42:41.540Z,30.02
2019-05-15T08:45:11.083Z,29.71
2019-05-15T08:47:41.371Z,30.70
2019-05-15T08:50:11.861Z,29.19
2019-05-15T08:52:40.260Z,28.19
2019-05-15T08:55:09.370Z,28.72
2019-05-15T08:57:38.461Z,28.82
2019-05-15T09:00:09.832Z,29.22
2019-05-15T09:02:38.566Z,31.22
2019-05-15T09:05:09.350Z,30.09
2019-05-15T09:07:38.744Z,27.15
2019-05-15T09:10:10.452Z,28.49
2019-05-15T09:12:41.775Z,27.69
2019-05-15T09:15:12.322Z,28.25
2019-05-15T09:17:40.718Z,28.91
2019-05-15T09:20:10.558Z,29.39
2019-05-15T09:22:39.614Z,28.25
2019-05-15T09:25:10.070Z,26.69
2019-05-15T09:27:38.792Z,27.84
2019-05-15T09:30:09.316Z,29.58
2019-05-15T09:32:39.240Z,28.66
2019-05-15T09:35:09.378Z,28.11
2019-05-15T09:37:38.710Z,28.14
2019-05-15T09:40:09.023Z,28.63
2019-05-15T09:42:38.855Z,29.23
2019-05-15T09:45:09.712Z,28.93
2019-05-15T09:47:39.626Z,28.37
2019-05-15T09:50:10.608Z,28.07
2019-05-15T09:52:39.835Z,28.07
2019-05-15T09:55:09.949Z,28.92
2019-05-15T09:57:38.958Z,28.58
2019-05-15T10:00:09.805Z,27.72
2019-05-15T10:02:39.343Z,26.79
2019-05-15T10:05:11.305Z,28.23
2019-05-15T10:07:40.462Z,27.92
2019-05-15T10:10:10.308Z,28.32
2019-05-15T10:12:39.045Z,29.32
2019-05-15T10:15:11.697Z,27.85
2019-05-15T10:17:42.315Z,26.25
2019-05-15T10:20:11.520Z,27.33
2019-05-15T10:22:39.923Z,26.47
2019-05-15T10:25:09.840Z,27.78
2019-05-15T10:27:39.783Z,26.96
2019-05-15T10:30:10.611Z,27.02
2019-05-15T10:32:39.673Z,24.22
2019-05-15T10:35:23.720Z,24.08
2019-05-15T10:37:39.417Z,24.99
2019-05-15T10:40:10.303Z,25.70
2019-05-15T10:42:40.044Z,25.56
2019-05-15T10:45:10.497Z,25.85
2019-05-15T10:47:40.465Z,25.03
2019-05-15T10:50:10.004Z,26.48
2019-05-15T10:52:38.512Z,25.86
2019-05-15T10:55:09.401Z,25.38
2019-05-15T10:57:42.723Z,27.13
2019-05-15T11:00:09.867Z,26.25
2019-05-15T11:02:39.452Z,26.38
2019-05-15T11:05:13.117Z,23.71
2019-05-15T11:07:44.802Z,25.81
2019-05-15T11:10:13.546Z,25.68
2019-05-15T11:12:41.904Z,24.91
2019-05-15T11:15:14.290Z,23.84
2019-05-15T11:17:42.637Z,23.08
2019-05-15T11:20:11.861Z,24.48
2019-05-15T11:22:43.017Z,22.21
2019-05-15T11:25:11.619Z,23.21
2019-05-15T11:27:40.170Z,20.76
2019-05-15T11:30:10.864Z,21.67
2019-05-15T11:32:39.436Z,21.30
2019-05-15T11:35:08.561Z,22.89
2019-05-15T11:37:43.870Z,22.78
2019-05-15T11:40:10.927Z,24.60
2019-05-15T11:42:39.897Z,23.55
2019-05-15T11:45:09.945Z,24.88
2019-05-15T11:47:39.935Z,25.14
2019-05-15T11:50:10.062Z,22.63
2019-05-15T11:52:40.303Z,22.35
2019-05-15T11:55:10.491Z,22.00
2019-05-15T11:57:46.888Z,21.06
2019-05-15T12:00:16.084Z,21.83
2019-05-15T12:02:40.983Z,22.61
2019-05-15T12:05:09.902Z,23.90
2019-05-15T12:07:38.431Z,23.97
2019-05-15T12:10:10.592Z,23.86
2019-05-15T12:12:38.727Z,23.40
2019-05-15T12:15:08.355Z,24.07
2019-05-15T12:17:39.152Z,22.24
2019-05-15T12:20:10.518Z,22.01
2019-05-15T12:22:39.227Z,22.51
2019-05-15T12:25:10.637Z,21.16
2019-05-15T12:27:40.867Z,21.57
2019-05-15T12:30:11.799Z,22.01
2019-05-15T12:32:40.773Z,19.83
2019-05-15T12:35:10.965Z,20.91
2019-05-15T12:37:40.264Z,21.00
2019-05-15T13:00:15.040Z,19.45
2019-05-15T13:02:43.440Z,20.31
2019-05-15T13:05:12.766Z,21.32
2019-05-15T13:07:42.740Z,21.19
2019-05-15T13:10:12.266Z,20.83
2019-05-15T13:12:55.740Z,20.67
2019-05-15T13:15:13.642Z,20.32
2019-05-15T13:17:42.029Z,19.62
2019-05-15T13:20:10.561Z,21.57
2019-05-15T13:22:39.561Z,21.13
2019-05-15T13:25:09.638Z,20.86
2019-05-15T13:27:38.505Z,20.87
2019-05-15T13:30:10.246Z,20.99
2019-05-15T13:32:40.977Z,19.40
2019-05-15T13:35:09.958Z,20.99
2019-05-15T13:37:39.109Z,19.86
2019-05-15T13:40:09.023Z,20.39
2019-05-15T13:42:38.945Z,20.53
2019-05-15T13:45:13.181Z,19.57
2019-05-15T13:47:41.894Z,20.81
2019-05-15T13:50:10.744Z,20.78
2019-05-15T13:52:39.536Z,20.90
2019-05-15T13:55:10.517Z,20.40
2019-05-15T13:57:38.913Z,19.79
2019-05-15T14:00:09.328Z,20.59
2019-05-15T14:02:38.996Z,20.70
2019-05-15T14:05:09.374Z,20.17
2019-05-15T14:07:48.926Z,21.47
2019-05-15T14:10:10.857Z,21.15
2019-05-15T14:12:39.250Z,22.12
2019-05-15T14:15:09.392Z,21.23
2019-05-15T14:17:38.105Z,21.08
2019-05-15T14:20:11.253Z,21.31
2019-05-15T14:22:39.764Z,22.09
2019-05-15T14:25:09.287Z,22.38
2019-05-15T14:27:39.660Z,21.62
2019-05-15T14:30:09.700Z,21.95
2019-05-15T14:32:39.389Z,22.15
2019-05-15T14:35:09.715Z,21.95
2019-05-15T14:37:38.261Z,24.05
2019-05-15T14:40:11.054Z,22.26
2019-05-15T14:42:39.954Z,24.15
2019-05-15T14:45:09.782Z,21.86
2019-05-15T14:47:39.179Z,22.34
2019-05-15T14:50:09.888Z,21.71
2019-05-15T14:52:38.809Z,22.75
2019-05-15T14:55:07.873Z,23.17
2019-05-15T14:57:39.363Z,23.61
2019-05-15T15:00:08.810Z,22.88
2019-05-15T15:02:38.952Z,22.99
2019-05-15T15:05:09.204Z,24.78
2019-05-15T15:07:38.609Z,25.02
2019-05-15T15:10:08.096Z,24.90
2019-05-15T15:12:39.681Z,25.41
2019-05-15T15:15:10.544Z,25.76
2019-05-15T15:17:39.090Z,24.85
2019-05-15T15:20:08.042Z,25.78
2019-05-15T15:22:39.133Z,25.32
2019-05-15T15:25:09.626Z,25.92
2019-05-15T15:27:39.358Z,27.81
2019-05-15T15:30:09.573Z,28.27
2019-05-15T15:32:38.711Z,26.70
2019-05-15T15:35:09.759Z,28.18
2019-05-15T15:37:38.380Z,26.20
2019-05-15T15:40:08.637Z,26.46
2019-05-15T15:42:39.455Z,26.37
2019-05-15T15:45:09.575Z,27.61
2019-05-15T15:47:39.009Z,27.66
2019-05-15T15:50:09.639Z,28.84
2019-05-15T15:52:40.858Z,28.16
2019-05-15T15:55:11.711Z,27.79
2019-05-15T15:57:40.233Z,26.35
2019-05-15T16:00:10.539Z,27.35
2019-05-15T16:02:41.002Z,27.43
2019-05-15T16:05:09.650Z,28.11
2019-05-15T16:07:38.228Z,28.11
2019-05-15T16:10:08.712Z,27.54
2019-05-15T16:12:39.544Z,27.83
2019-05-15T16:15:09.041Z,27.87
2019-05-15T16:17:38.579Z,29.54
2019-05-15T16:20:09.509Z,29.07
2019-05-15T16:22:39.512Z,29.82
2019-05-15T16:25:09.985Z,28.99
2019-05-15T16:27:40.154Z,29.43
2019-05-15T16:30:09.523Z,28.76
2019-05-15T16:32:38.871Z,29.18
2019-05-15T16:35:09.110Z,30.24
2019-05-15T16:37:38.788Z,30.24
2019-05-15T16:40:08.493Z,29.85
2019-05-15T16:42:38.564Z,28.76
2019-05-15T16:45:09.436Z,29.48
2019-05-15T16:47:39.918Z,29.49
2019-05-15T16:50:09.449Z,29.26
2019-05-15T16:52:39.247Z,27.16
2019-05-15T16:55:09.491Z,26.18
2019-05-15T16:57:38.958Z,28.04
2019-05-15T17:00:10.138Z,26.44
2019-05-15T17:02:43.411Z,26.61
2019-05-15T17:05:11.907Z,25.86
2019-05-15T17:07:40.368Z,27.06
2019-05-15T17:10:09.070Z,26.05
2019-05-15T17:12:39.335Z,25.42
2019-05-15T17:15:09.224Z,26.52
2019-05-15T17:17:38.660Z,28.20
2019-05-15T17:20:09.793Z,28.83
2019-05-15T17:22:38.992Z,28.56
2019-05-15T17:25:09.555Z,29.41
2019-05-15T17:27:37.997Z,28.28
2019-05-15T17:30:09.257Z,28.54
2019-05-15T17:32:40.524Z,28.77
2019-05-15T17:35:10.367Z,29.00
2019-05-15T17:37:38.913Z,29.77
2019-05-15T17:40:09.134Z,28.61
2019-05-15T17:42:38.915Z,28.67
2019-05-15T17:45:09.470Z,27.93
2019-05-15T17:47:38.837Z,29.37
2019-05-15T17:50:09.612Z,29.92
2019-05-15T17:52:38.960Z,30.03
2019-05-15T17:55:07.607Z,31.53
2019-05-15T17:57:38.646Z,32.46
2019-05-15T18:00:11.611Z,31.42
2019-05-15T18:02:39.026Z,32.77
2019-05-15T18:05:08.538Z,30.30
2019-05-15T18:07:38.941Z,32.26
2019-05-15T18:10:08.707Z,31.86
2019-05-15T18:12:40.069Z,32.70
2019-05-15T18:15:09.440Z,32.83
2019-05-15T18:17:39.303Z,32.80
2019-05-15T18:20:09.840Z,32.79
2019-05-15T18:22:38.454Z,33.66
2019-05-15T18:25:09.095Z,33.49
2019-05-15T18:27:38.797Z,34.92
2019-05-15T18:30:09.175Z,34.69
2019-05-15T18:32:40.791Z,35.04
2019-05-15T18:35:09.318Z,35.87
2019-05-15T18:37:39.400Z,36.09
2019-05-15T18:40:10.488Z,35.71
2019-05-15T18:42:39.571Z,37.24
2019-05-15T18:45:09.510Z,36.85
2019-05-15T18:47:40.103Z,37.01
2019-05-15T18:50:13.017Z,37.48
2019-05-15T18:52:42.864Z,37.81
2019-05-15T18:55:11.376Z,36.95
2019-05-15T18:57:39.753Z,35.98
2019-05-15T19:00:12.209Z,36.73
2019-05-15T19:02:40.575Z,36.28
2019-05-15T19:05:10.740Z,36.68
2019-05-15T19:07:41.960Z,36.21
2019-05-15T19:10:13.430Z,36.69
2019-05-15T19:12:41.964Z,36.65
2019-05-15T19:15:10.969Z,37.15
2019-05-15T19:17:40.955Z,35.95
2019-05-15T19:20:10.372Z,35.95
2019-05-15T19:22:41.008Z,37.04
2019-05-15T19:25:09.385Z,37.61
2019-05-15T19:27:39.065Z,37.70
2019-05-15T19:30:08.555Z,37.64
2019-05-15T19:32:38.761Z,37.96
2019-05-15T19:35:08.672Z,38.88
2019-05-15T19:37:38.440Z,38.40
2019-05-15T19:40:09.266Z,38.95
2019-05-15T19:42:38.520Z,38.20
2019-05-15T19:45:09.325Z,37.55
2019-05-15T19:47:39.200Z,37.53
2019-05-15T19:50:09.543Z,37.44
2019-05-15T19:52:40.222Z,37.49
2019-05-15T19:55:09.193Z,37.73
2019-05-15T19:57:39.038Z,37.09
2019-05-15T20:00:09.703Z,36.08
2019-05-15T20:02:38.377Z,36.10
2019-05-15T20:05:09.101Z,36.70
2019-05-15T20:07:42.671Z,37.42
2019-05-15T20:10:12.093Z,36.65
2019-05-15T20:12:41.977Z,36.45
2019-05-15T20:15:10.833Z,36.17
2019-05-15T20:17:39.284Z,37.02
2019-05-15T20:20:09.905Z,37.47
2019-05-15T20:22:40.251Z,37.73
2019-05-15T20:25:08.891Z,37.43
2019-05-15T20:27:39.020Z,38.58
2019-05-15T20:30:08.917Z,38.97
2019-05-15T20:32:38.722Z,39.09
2019-05-15T20:35:09.487Z,37.78
2019-05-15T20:37:39.108Z,37.45
2019-05-15T20:40:09.542Z,38.55
2019-05-15T20:42:39.607Z,38.71
2019-05-15T20:45:12.020Z,39.02
2019-05-15T20:47:39.235Z,38.85
2019-05-15T20:50:09.614Z,38.35
2019-05-15T20:52:41.152Z,38.97
2019-05-15T20:55:09.803Z,40.24
2019-05-15T20:57:40.818Z,39.39
2019-05-15T21:00:12.649Z,39.71
2019-05-15T21:02:41.019Z,39.05
2019-05-15T21:05:09.883Z,39.33
2019-05-15T21:07:42.902Z,38.99
2019-05-15T21:10:10.578Z,40.97
2019-05-15T21:12:41.207Z,40.24
2019-05-15T21:15:12.082Z,40.27
2019-05-15T21:17:42.744Z,39.58
2019-05-15T21:20:11.162Z,39.94
2019-05-15T21:22:41.217Z,40.29
2019-05-15T21:25:11.175Z,42.29
2019-05-15T21:27:42.096Z,41.50
2019-05-15T21:30:11.299Z,40.91
2019-05-15T21:32:39.814Z,39.85
2019-05-15T21:35:09.398Z,40.30
2019-05-15T21:37:39.204Z,40.99
2019-05-15T21:40:09.086Z,41.21
2019-05-15T21:42:38.899Z,40.78
2019-05-15T21:45:14.201Z,41.38
2019-05-15T21:47:39.991Z,40.93
2019-05-15T21:50:09.033Z,41.35
2019-05-15T21:52:39.224Z,40.46
2019-05-15T21:55:09.589Z,40.55
2019-05-15T21:57:40.438Z,41.02
2019-05-15T22:00:20.528Z,40.74
2019-05-15T22:02:49.541Z,42.57
2019-05-15T22:05:19.012Z,41.79
2019-05-15T22:07:51.119Z,42.97
2019-05-15T22:10:19.581Z,41.87
2019-05-15T22:12:48.468Z,43.26
2019-05-15T22:15:18.937Z,43.29
2019-05-15T22:17:49.289Z,43.60
2019-05-15T22:20:19.794Z,43.52
2019-05-15T22:22:50.805Z,44.16
2019-05-15T22:25:19.337Z,43.38
2019-05-15T22:27:48.675Z,44.41
2019-05-15T22:30:20.415Z,44.74
2019-05-15T22:32:49.681Z,45.04
2019-05-15T22:35:19.019Z,44.65
2019-05-15T22:37:49.369Z,43.92
2019-05-15T22:40:18.702Z,44.85
2019-05-15T22:42:48.609Z,46.29
2019-05-15T22:45:18.937Z,45.38
2019-05-15T22:47:48.347Z,45.33
2019-05-15T22:50:18.831Z,45.95
2019-05-15T22:52:49.351Z,46.61
2019-05-15T22:55:21.028Z,45.92
2019-05-15T22:57:49.417Z,45.29
2019-05-15T23:00:20.725Z,46.87
2019-05-15T23:02:49.670Z,45.86
2019-05-15T23:05:27.624Z,45.62
2019-05-15T23:07:48.428Z,45.32
2019-05-15T23:10:24.823Z,46.79
2019-05-15T23:12:53.228Z,46.39
2019-05-15T23:15:21.618Z,46.77
2019-05-15T23:17:50.302Z,46.68
2019-05-15T23:20:22.268Z,48.25
2019-05-15T23:22:50.643Z,48.13
2019-05-15T23:25:20.571Z,47.09
2019-05-15T23:27:48.940Z,48.10
2019-05-15T23:30:18.578Z,48.42
2019-05-15T23:32:48.768Z,47.85
2019-05-15T23:35:17.879Z,47.90
2019-05-15T23:37:48.598Z,48.69
2019-05-15T23:40:18.040Z,49.05
2019-05-15T23:42:49.105Z,48.99
2019-05-15T23:45:18.228Z,48.69
2019-05-15T23:47:48.650Z,48.10
2019-05-15T23:50:16.905Z,48.50
2019-05-15T23:52:45.277Z,48.06
2019-05-15T23:55:13.806Z,47.62
2019-05-15T23:57:42.272Z,47.89
